Terminal Aerodrome Forecast
Issued by NWS

Home | Current Version | Previous Version | Text Only | Print | Product List | Glossary On
Versions: 1 2 3 4 5 6 7 8 9 10 11 12 13 14 15 16 17 18 19
000
FTUS41 KPBZ 311700
TAFLBE
TAF
KLBE 311730Z 3118/0118 23010KT P6SM BKN025
     FM311900 24008KT P6SM SCT035
     FM010700 VRB03KT 5SM BR SKC
     FM011400 17005KT P6SM BKN080=

USA.gov is the U.S. government's official web portal to all federal, state and local government web resources and services.